Time;durP1;ratioP1;P1;durP2;ratioP2;P2;SDS_P1;SDS_P2;PMS_P1;PMS_P2;Temp;Humidity;BMP_temperature;BMP_pressure;BME280_temperature;BME280_humidity;BME280_pressure;Samples;Min_cycle;Max_cycle;Signal;HPM_P1;HPM_P2
2021/12/22 00:00:15;;;;;;;;;29.00;29.00;12.20;99.90;;;;;;5051787;28;11512;-49
2021/12/22 00:02:46;;;;;;;;;28.00;27.25;12.20;99.90;;;;;;5051132;28;11544;-49
2021/12/22 00:05:25;;;;;;;;;34.00;33.00;12.20;99.90;;;;;;5032714;28;12033;-48
2021/12/22 00:07:55;;;;;;;;;31.25;29.25;12.20;99.90;;;;;;5046279;28;12209;-48
2021/12/22 00:10:26;;;;;;;;;31.25;31.25;12.30;99.90;;;;;;5052974;28;11664;-48
2021/12/22 00:12:57;;;;;;;;;29.25;29.25;12.30;99.90;;;;;;5033638;28;11515;-49
2021/12/22 00:15:30;;;;;;;;;35.50;32.75;12.20;99.90;;;;;;5036904;28;11508;-47
2021/12/22 00:18:00;;;;;;;;;33.25;32.50;12.30;99.90;;;;;;5034166;28;11587;-47
2021/12/22 00:20:32;;;;;;;;;21.75;21.50;12.30;99.90;;;;;;5032757;28;11552;-50
2021/12/22 00:23:03;;;;;;;;;27.50;27.50;12.30;99.90;;;;;;5050226;28;11495;-47
2021/12/22 00:25:34;;;;;;;;;26.25;26.25;12.30;99.90;;;;;;5048258;28;11548;-50
2021/12/22 00:28:05;;;;;;;;;33.25;31.50;12.30;99.90;;;;;;5051875;28;11552;-51
2021/12/22 00:30:38;;;;;;;;;28.75;27.50;12.30;99.90;;;;;;5041846;28;11509;-46
2021/12/22 00:33:11;;;;;;;;;25.50;25.50;12.30;99.90;;;;;;5056015;28;11567;-51
2021/12/22 00:35:45;;;;;;;;;31.25;30.00;12.30;99.90;;;;;;5052019;28;11543;-47
2021/12/22 00:38:20;;;;;;;;;29.50;28.75;12.30;99.90;;;;;;5054678;28;11483;-50
2021/12/22 00:40:51;;;;;;;;;29.25;29.25;12.30;99.90;;;;;;5037575;28;11614;-47
2021/12/22 00:43:22;;;;;;;;;29.50;29.50;12.30;99.90;;;;;;5032277;28;11481;-52
2021/12/22 00:45:56;;;;;;;;;28.25;27.00;12.30;99.90;;;;;;5043453;28;11571;-47
2021/12/22 00:48:35;;;;;;;;;30.75;30.75;12.30;99.90;;;;;;5039461;28;11632;-50
2021/12/22 00:51:05;;;;;;;;;28.25;28.25;12.30;99.90;;;;;;5034843;28;11459;-52
2021/12/22 00:53:36;;;;;;;;;30.50;27.25;12.30;99.90;;;;;;5053765;28;11534;-52
2021/12/22 00:56:07;;;;;;;;;33.50;28.25;12.30;99.90;;;;;;5056966;28;11483;-51
2021/12/22 00:58:39;;;;;;;;;21.25;21.25;12.30;99.90;;;;;;5055582;28;11470;-50
2021/12/22 01:01:13;;;;;;;;;30.75;30.75;12.30;99.90;;;;;;5050764;28;11476;-52
2021/12/22 01:03:44;;;;;;;;;29.25;28.75;12.30;99.90;;;;;;5040028;28;11468;-48
2021/12/22 01:06:15;;;;;;;;;30.50;29.25;12.30;99.90;;;;;;5042219;28;11486;-49
2021/12/22 01:08:46;;;;;;;;;29.75;29.75;12.30;99.90;;;;;;5052848;28;11491;-48
2021/12/22 01:11:17;;;;;;;;;29.75;27.75;12.30;99.90;;;;;;5049272;28;11490;-48
2021/12/22 01:13:50;;;;;;;;;26.50;26.50;12.30;99.90;;;;;;5052653;28;11570;-50
2021/12/22 01:16:26;;;;;;;;;24.50;24.00;12.30;99.90;;;;;;4690205;28;9999954;-50
2021/12/22 01:19:00;;;;;;;;;30.00;30.00;12.20;99.90;;;;;;5052230;28;8839;-46
2021/12/22 01:21:43;;;;;;;;;30.00;30.00;12.20;99.90;;;;;;5049529;28;11698;-46
2021/12/22 01:26:50;;;;;;;;;23.25;23.25;12.20;99.90;;;;;;5058240;28;11534;-49
2021/12/22 01:29:22;;;;;;;;;20.50;20.50;12.20;99.90;;;;;;5053512;28;11493;-47
2021/12/22 01:31:56;;;;;;;;;22.75;22.75;12.20;99.90;;;;;;5051926;28;11504;-47
2021/12/22 01:34:27;;;;;;;;;20.75;19.25;12.20;99.90;;;;;;5054930;28;11499;-48
2021/12/22 01:36:58;;;;;;;;;18.50;18.50;12.20;99.90;;;;;;5028103;28;11466;-47
2021/12/22 01:39:29;;;;;;;;;16.25;16.25;12.20;99.90;;;;;;5034099;28;11615;-50
2021/12/22 01:42:01;;;;;;;;;15.00;15.00;12.20;99.90;;;;;;5048250;28;11490;-53
2021/12/22 01:44:46;;;;;;;;;18.00;18.00;12.20;99.90;;;;;;5044751;28;11633;-51
2021/12/22 01:50:14;;;;;;;;;15.75;15.75;12.20;99.90;;;;;;5048139;28;11470;-49
2021/12/22 01:52:45;;;;;;;;;15.25;15.25;12.20;99.90;;;;;;5046472;28;11476;-51
2021/12/22 01:55:29;;;;;;;;;16.00;16.00;12.20;99.90;;;;;;5051457;28;11456;-55
2021/12/22 01:58:01;;;;;;;;;13.75;12.00;12.20;99.90;;;;;;5049513;28;11457;-52
2021/12/22 02:00:32;;;;;;;;;16.00;16.00;12.20;99.90;;;;;;5033407;28;12271;-50
2021/12/22 02:03:04;;;;;;;;;15.50;15.50;12.20;99.90;;;;;;5033504;28;11499;-51
2021/12/22 02:05:35;;;;;;;;;13.50;12.25;12.20;99.90;;;;;;5047953;28;11536;-52
2021/12/22 02:08:07;;;;;;;;;14.25;14.25;12.20;99.90;;;;;;5048591;28;12112;-53
2021/12/22 02:10:46;;;;;;;;;15.50;15.50;12.20;99.90;;;;;;5047288;28;11467;-51
2021/12/22 02:13:27;;;;;;;;;15.75;15.75;12.20;99.90;;;;;;5048730;28;11483;-50
2021/12/22 02:16:07;;;;;;;;;20.00;18.00;12.10;99.90;;;;;;5052870;28;11505;-49
2021/12/22 02:18:44;;;;;;;;;14.25;14.25;12.10;99.90;;;;;;5046016;28;10966;-52
2021/12/22 02:21:16;;;;;;;;;18.25;18.25;12.10;99.90;;;;;;5048427;28;11057;-58
2021/12/22 02:23:48;;;;;;;;;19.50;19.50;12.10;99.90;;;;;;5047655;28;11475;-60
2021/12/22 02:26:30;;;;;;;;;19.25;19.25;12.10;99.90;;;;;;5051788;28;11481;-50
2021/12/22 02:29:06;;;;;;;;;19.00;19.00;12.10;99.90;;;;;;5052098;28;11480;-51
2021/12/22 02:31:43;;;;;;;;;19.50;18.00;12.10;99.90;;;;;;5050071;28;11476;-58
2021/12/22 02:34:17;;;;;;;;;18.00;17.75;12.10;99.90;;;;;;5033447;28;11516;-59
2021/12/22 02:36:48;;;;;;;;;16.50;14.75;12.10;99.90;;;;;;5045893;28;11449;-58
2021/12/22 02:39:19;;;;;;;;;19.25;18.25;12.10;99.90;;;;;;5050433;28;11439;-59
2021/12/22 02:41:50;;;;;;;;;17.00;17.00;12.10;99.90;;;;;;5049325;28;11481;-52
2021/12/22 02:44:26;;;;;;;;;16.50;16.50;12.00;99.90;;;;;;5045489;28;11517;-50
2021/12/22 02:46:56;;;;;;;;;15.00;15.00;12.00;99.90;;;;;;5045804;28;11611;-58
2021/12/22 02:49:27;;;;;;;;;17.75;17.75;12.00;99.90;;;;;;5045442;28;11496;-59
2021/12/22 02:51:57;;;;;;;;;17.25;17.25;12.00;99.90;;;;;;5047837;28;11629;-52
2021/12/22 02:54:28;;;;;;;;;18.50;17.75;12.00;99.90;;;;;;5045115;28;11511;-50
2021/12/22 02:57:18;;;;;;;;;17.75;17.75;12.00;99.90;;;;;;5051790;28;11482;-51
2021/12/22 03:02:47;;;;;;;;;17.33;17.33;12.00;99.90;;;;;;5046418;28;11495;-52
2021/12/22 03:05:19;;;;;;;;;29.67;27.33;12.00;99.90;;;;;;5046762;28;8872;-50
2021/12/22 03:07:50;;;;;;;;;35.33;31.67;12.00;99.90;;;;;;5027963;28;8811;-48
2021/12/22 03:10:21;;;;;;;;;28.67;28.67;11.90;99.90;;;;;;5037237;28;8972;-50
2021/12/22 03:12:53;;;;;;;;;31.00;28.00;11.90;99.90;;;;;;5042121;28;8845;-51
2021/12/22 03:15:24;;;;;;;;;28.67;28.67;11.90;99.90;;;;;;5032087;28;8826;-53
2021/12/22 03:17:54;;;;;;;;;30.67;30.67;11.90;99.90;;;;;;5050477;28;8838;-52
2021/12/22 03:20:25;;;;;;;;;29.67;29.67;11.90;99.90;;;;;;5046026;28;8998;-52
2021/12/22 03:22:55;;;;;;;;;29.67;27.33;11.90;99.90;;;;;;5049166;28;8819;-53
2021/12/22 03:25:27;;;;;;;;;29.33;28.67;11.90;99.90;;;;;;5051091;28;8824;-53
2021/12/22 03:28:02;;;;;;;;;35.00;32.33;11.80;99.90;;;;;;5029172;28;9558;-48
2021/12/22 03:30:33;;;;;;;;;29.67;29.67;11.80;99.90;;;;;;5035310;28;8836;-52
2021/12/22 03:33:05;;;;;;;;;32.00;30.33;11.80;99.90;;;;;;5055966;28;8871;-61
2021/12/22 03:35:39;;;;;;;;;27.33;25.67;11.80;99.90;;;;;;5050395;28;8853;-60
2021/12/22 03:38:15;;;;;;;;;27.00;27.00;11.70;99.90;;;;;;5050573;28;8976;-52
2021/12/22 03:40:47;;;;;;;;;30.33;30.33;11.80;99.90;;;;;;5030327;28;8877;-47
2021/12/22 03:43:17;;;;;;;;;33.33;31.33;11.80;99.90;;;;;;5032246;28;8878;-53
2021/12/22 03:45:48;;;;;;;;;26.00;26.00;11.80;99.90;;;;;;5038770;28;8842;-50
2021/12/22 03:48:21;;;;;;;;;26.00;26.00;11.80;99.90;;;;;;5019592;28;10376;-53
2021/12/22 03:50:53;;;;;;;;;18.00;18.00;11.80;99.90;;;;;;5048909;28;9587;-51
2021/12/22 03:53:25;;;;;;;;;24.00;23.00;11.80;99.90;;;;;;5053972;28;8843;-52
2021/12/22 03:55:56;;;;;;;;;25.67;25.67;11.80;99.90;;;;;;5050373;28;9549;-48
2021/12/22 03:58:27;;;;;;;;;28.00;27.33;11.80;99.90;;;;;;5053594;28;8840;-61
2021/12/22 04:00:58;;;;;;;;;33.00;28.67;11.80;99.90;;;;;;5052444;28;8969;-60
2021/12/22 04:03:32;;;;;;;;;28.75;28.75;11.80;99.90;;;;;;5060790;28;9026;-51
2021/12/22 04:06:04;;;;;;;;;25.50;25.50;11.80;99.90;;;;;;5036972;28;11498;-53
2021/12/22 04:08:36;;;;;;;;;24.25;22.50;11.80;99.90;;;;;;5056238;28;11521;-55
2021/12/22 04:11:06;;;;;;;;;25.00;23.50;11.80;99.90;;;;;;5035938;28;11544;-52
2021/12/22 04:13:37;;;;;;;;;23.50;23.50;11.80;99.90;;;;;;5045497;28;11522;-51
2021/12/22 04:16:07;;;;;;;;;18.00;18.00;11.80;99.90;;;;;;5047814;28;11453;-51
2021/12/22 04:18:38;;;;;;;;;18.00;18.00;11.80;99.90;;;;;;5051628;28;11507;-54
2021/12/22 04:21:13;;;;;;;;;22.75;22.75;11.70;99.90;;;;;;5038091;28;12231;-52
2021/12/22 04:23:44;;;;;;;;;23.00;23.00;11.70;99.90;;;;;;5045453;28;11708;-62
2021/12/22 04:26:16;;;;;;;;;17.75;17.75;11.70;99.90;;;;;;5051665;28;12494;-59
2021/12/22 04:28:49;;;;;;;;;24.25;24.25;11.70;99.90;;;;;;5031357;28;11501;-62
2021/12/22 04:31:20;;;;;;;;;24.75;24.25;11.70;99.90;;;;;;5053433;28;12147;-47
2021/12/22 04:33:51;;;;;;;;;24.25;24.25;11.70;99.90;;;;;;5045782;28;11561;-52
2021/12/22 04:36:22;;;;;;;;;22.25;22.25;11.70;99.90;;;;;;5027073;28;11582;-58
2021/12/22 04:38:54;;;;;;;;;26.75;25.00;11.60;99.90;;;;;;5041279;28;11534;-61
2021/12/22 04:41:25;;;;;;;;;23.00;23.00;11.70;99.90;;;;;;5050493;28;11535;-52
2021/12/22 04:43:56;;;;;;;;;26.25;26.25;11.60;99.90;;;;;;5036187;28;11623;-48
2021/12/22 04:46:27;;;;;;;;;24.75;23.00;11.70;99.90;;;;;;5036159;28;11508;-60
2021/12/22 04:48:59;;;;;;;;;26.25;26.25;11.60;99.90;;;;;;5034619;28;11460;-62
2021/12/22 04:51:32;;;;;;;;;28.50;27.50;11.60;99.90;;;;;;5045317;28;11600;-50
2021/12/22 04:56:48;;;;;;;;;34.00;33.00;11.60;99.90;;;;;;5052003;28;12203;-51
2021/12/22 04:59:20;;;;;;;;;28.75;27.75;11.60;99.90;;;;;;5035219;28;11510;-53
2021/12/22 05:01:51;;;;;;;;;30.00;30.00;11.60;99.90;;;;;;5056291;28;11448;-52
2021/12/22 05:04:23;;;;;;;;;26.25;26.25;11.60;99.90;;;;;;5036429;28;11546;-52
2021/12/22 05:06:53;;;;;;;;;29.00;27.50;11.60;99.90;;;;;;5052290;28;11504;-55
2021/12/22 05:09:25;;;;;;;;;30.00;30.00;11.50;99.90;;;;;;5051683;28;11552;-52
2021/12/22 05:11:55;;;;;;;;;26.50;26.50;11.50;99.90;;;;;;5036048;28;11486;-59
2021/12/22 05:14:24;;;;;;;;;27.75;26.50;11.50;99.90;;;;;;5053898;28;11589;-60
2021/12/22 05:17:00;;;;;;;;;24.25;24.25;11.50;99.90;;;;;;5034904;28;11574;-52
2021/12/22 05:19:30;;;;;;;;;36.75;33.50;11.50;99.90;;;;;;5051411;28;11607;-51
2021/12/22 05:22:01;;;;;;;;;29.25;26.00;11.50;99.90;;;;;;5044690;28;11528;-52
2021/12/22 05:24:31;;;;;;;;;34.75;33.75;11.50;99.90;;;;;;5052425;28;11484;-50
2021/12/22 05:27:01;;;;;;;;;30.00;29.50;11.50;99.90;;;;;;5040639;28;11491;-53
2021/12/22 05:29:35;;;;;;;;;33.25;32.50;11.50;99.90;;;;;;5051581;28;11506;-50
2021/12/22 05:32:06;;;;;;;;;35.25;33.25;11.50;99.90;;;;;;5046194;28;11676;-51
2021/12/22 05:34:37;;;;;;;;;28.75;27.75;11.50;99.90;;;;;;5037185;28;11499;-52
2021/12/22 05:37:07;;;;;;;;;35.33;34.33;11.50;99.90;;;;;;5031570;28;11664;-53
2021/12/22 05:39:38;;;;;;;;;31.00;31.00;11.50;99.90;;;;;;5053327;28;11485;-50
2021/12/22 05:42:11;;;;;;;;;35.33;34.33;11.50;99.90;;;;;;5055380;28;11428;-51
2021/12/22 05:44:46;;;;;;;;;34.33;33.00;11.40;99.90;;;;;;5049329;28;11473;-52
2021/12/22 05:47:17;;;;;;;;;32.00;31.67;11.50;99.90;;;;;;5051151;28;8841;-57
2021/12/22 05:49:49;;;;;;;;;34.33;33.00;11.40;99.90;;;;;;5052311;28;11496;-58
2021/12/22 05:52:20;;;;;;;;;39.33;35.33;11.40;99.90;;;;;;5044971;28;8854;-59
2021/12/22 05:54:51;;;;;;;;;39.67;36.00;11.40;99.90;;;;;;5045364;28;8835;-59
2021/12/22 05:57:22;;;;;;;;;38.67;35.00;11.40;99.90;;;;;;5050669;28;8911;-59
2021/12/22 05:59:54;;;;;;;;;45.67;39.67;11.40;99.90;;;;;;5046517;28;8828;-60
2021/12/22 06:02:25;;;;;;;;;43.00;38.67;11.40;99.90;;;;;;5030300;28;8970;-52
2021/12/22 06:04:56;;;;;;;;;47.00;40.67;11.40;99.90;;;;;;5047037;28;9549;-51
2021/12/22 06:07:27;;;;;;;;;50.00;42.00;11.40;99.90;;;;;;5057261;28;8832;-60
2021/12/22 06:09:58;;;;;;;;;50.00;43.00;11.40;99.90;;;;;;5029921;28;8923;-60
2021/12/22 06:12:28;;;;;;;;;50.33;43.67;11.40;99.90;;;;;;5049395;28;8831;-50
2021/12/22 06:14:59;;;;;;;;;49.33;42.33;11.40;99.90;;;;;;5047098;28;8831;-51
2021/12/22 06:17:30;;;;;;;;;50.00;43.67;11.40;99.90;;;;;;5050389;28;8858;-50
2021/12/22 06:20:00;;;;;;;;;50.00;43.33;11.30;99.90;;;;;;5029537;28;8859;-52
2021/12/22 06:22:34;;;;;;;;;51.00;42.67;11.30;99.90;;;;;;5051494;28;8874;-52
2021/12/22 06:25:05;;;;;;;;;55.67;47.67;11.30;99.90;;;;;;5047233;28;8810;-53
2021/12/22 06:27:35;;;;;;;;;56.00;47.67;11.30;99.90;;;;;;5047407;28;8843;-49
2021/12/22 06:30:07;;;;;;;;;60.00;50.33;11.30;99.90;;;;;;5038504;28;8990;-51
2021/12/22 06:32:38;;;;;;;;;58.33;49.33;11.30;99.90;;;;;;5052138;28;8871;-52
2021/12/22 06:35:08;;;;;;;;;63.00;52.25;11.30;99.90;;;;;;5046554;28;8958;-51
2021/12/22 06:37:40;;;;;;;;;65.25;54.00;11.30;99.90;;;;;;5051874;28;8856;-51
2021/12/22 06:40:12;;;;;;;;;66.25;54.25;11.30;99.90;;;;;;5050070;28;8823;-51
2021/12/22 06:42:45;;;;;;;;;67.00;55.25;11.30;99.90;;;;;;5049941;28;9544;-49
2021/12/22 06:45:15;;;;;;;;;70.50;58.50;11.30;99.90;;;;;;5049511;28;8884;-51
2021/12/22 06:47:47;;;;;;;;;70.25;57.50;11.30;99.90;;;;;;5046302;28;8987;-50
2021/12/22 06:50:18;;;;;;;;;73.00;61.00;11.30;99.90;;;;;;5041805;28;8864;-49
2021/12/22 06:52:49;;;;;;;;;74.75;63.50;11.30;99.90;;;;;;5048768;28;8846;-49
2021/12/22 06:55:20;;;;;;;;;74.50;62.75;11.10;99.90;;;;;;5049301;28;8807;-52
2021/12/22 06:57:55;;;;;;;;;73.50;61.75;11.30;99.90;;;;;;5051023;28;8832;-52
2021/12/22 07:00:26;;;;;;;;;77.25;66.00;11.30;99.90;;;;;;5048469;28;8847;-55
2021/12/22 07:02:58;;;;;;;;;81.25;74.25;11.30;99.90;;;;;;5046933;28;8840;-47
2021/12/22 07:05:29;;;;;;;;;77.25;67.50;11.30;99.90;;;;;;5049703;28;8810;-51
2021/12/22 07:07:59;;;;;;;;;81.00;72.75;11.20;99.90;;;;;;5048386;28;9004;-50
2021/12/22 07:10:30;;;;;;;;;76.50;66.75;11.20;99.90;;;;;;5051069;28;8851;-50
2021/12/22 07:13:02;;;;;;;;;77.75;67.75;11.30;99.90;;;;;;5049143;28;8843;-51
2021/12/22 07:15:36;;;;;;;;;77.50;68.25;11.20;99.90;;;;;;5049386;28;8906;-52
2021/12/22 07:18:10;;;;;;;;;78.75;70.75;11.20;99.90;;;;;;5048451;28;9006;-50
2021/12/22 07:20:42;;;;;;;;;78.25;69.50;11.20;99.90;;;;;;5046047;28;8855;-50
2021/12/22 07:23:12;;;;;;;;;79.25;71.25;11.20;99.90;;;;;;5040828;28;9062;-55
2021/12/22 07:25:45;;;;;;;;;82.50;76.50;11.10;99.90;;;;;;5036895;28;8861;-50
2021/12/22 07:28:16;;;;;;;;;79.00;70.75;11.20;99.90;;;;;;5034873;28;8879;-51
2021/12/22 07:30:46;;;;;;;;;81.25;74.00;11.20;99.90;;;;;;5050962;28;8835;-50
2021/12/22 07:33:18;;;;;;;;;72.25;62.00;11.20;99.90;;;;;;5054397;28;8875;-52
2021/12/22 07:36:02;;;;;;;;;68.00;57.25;11.20;99.90;;;;;;5038621;28;8920;-50
2021/12/22 07:38:40;;;;;;;;;59.50;50.75;11.20;99.90;;;;;;5045509;28;8815;-52
2021/12/22 07:41:13;;;;;;;;;56.50;48.25;11.20;99.90;;;;;;5051517;28;8873;-53
2021/12/22 07:43:44;;;;;;;;;58.50;47.75;11.20;99.90;;;;;;5034961;28;8843;-48
2021/12/22 07:46:15;;;;;;;;;66.50;56.00;11.20;99.90;;;;;;5017092;28;8850;-52
2021/12/22 07:48:50;;;;;;;;;72.00;61.33;11.10;99.90;;;;;;5031232;28;8843;-52
2021/12/22 07:51:23;;;;;;;;;77.33;68.67;11.10;99.90;;;;;;5048495;28;8862;-51
2021/12/22 07:53:53;;;;;;;;;82.50;76.75;11.10;99.90;;;;;;5054958;28;8854;-51
2021/12/22 07:56:24;;;;;;;;;84.25;77.50;11.10;99.90;;;;;;5056435;28;9647;-49
2021/12/22 07:58:55;;;;;;;;;80.75;74.00;11.10;99.90;;;;;;5035505;28;8846;-51
2021/12/22 08:01:27;;;;;;;;;79.75;73.00;11.10;99.90;;;;;;5031404;28;8922;-52
2021/12/22 08:03:57;;;;;;;;;84.75;79.75;11.20;99.90;;;;;;5056682;28;8891;-53
2021/12/22 08:06:29;;;;;;;;;86.75;82.75;11.10;99.90;;;;;;5046438;28;8855;-52
2021/12/22 08:08:59;;;;;;;;;78.75;71.25;11.20;99.90;;;;;;5049377;28;8860;-52
2021/12/22 08:11:30;;;;;;;;;77.50;69.50;11.10;99.90;;;;;;5047298;28;8871;-52
2021/12/22 08:14:00;;;;;;;;;78.75;70.25;11.10;99.90;;;;;;5053015;28;9006;-53
2021/12/22 08:16:33;;;;;;;;;73.75;65.00;11.10;99.90;;;;;;5031224;28;8860;-50
2021/12/22 08:19:03;;;;;;;;;69.00;59.25;11.10;99.90;;;;;;5051257;28;8899;-56
2021/12/22 08:21:34;;;;;;;;;71.75;62.50;11.10;99.90;;;;;;5046765;28;8968;-51
2021/12/22 08:24:07;;;;;;;;;74.25;65.75;11.10;99.90;;;;;;5051189;28;9473;-51
2021/12/22 08:26:38;;;;;;;;;72.75;63.00;11.10;99.90;;;;;;5029010;28;8915;-51
2021/12/22 08:29:14;;;;;;;;;75.75;67.00;11.10;99.90;;;;;;5056354;28;8831;-53
2021/12/22 08:31:43;;;;;;;;;83.50;78.75;11.10;99.90;;;;;;5043929;28;8835;-49
2021/12/22 08:34:21;;;;;;;;;84.75;80.75;11.10;99.90;;;;;;5049074;28;8862;-53
2021/12/22 08:39:43;;;;;;;;;69.50;59.50;11.10;99.90;;;;;;5050677;28;8946;-53
2021/12/22 08:42:14;;;;;;;;;67.25;57.75;11.10;99.90;;;;;;5047551;28;8867;-52
2021/12/22 08:44:45;;;;;;;;;60.00;50.75;11.10;99.90;;;;;;5033525;28;8930;-52
2021/12/22 08:47:17;;;;;;;;;55.50;47.25;11.10;99.90;;;;;;5047602;28;9624;-50
2021/12/22 08:49:49;;;;;;;;;51.00;43.33;11.10;99.90;;;;;;5049147;28;8890;-56
2021/12/22 08:52:19;;;;;;;;;33.33;30.67;11.00;99.90;;;;;;5049337;28;9395;-54
2021/12/22 08:54:50;;;;;;;;;38.00;34.67;11.10;99.90;;;;;;5028668;28;8859;-53
2021/12/22 08:57:22;;;;;;;;;35.33;32.67;11.00;99.90;;;;;;5050283;28;8877;-52
2021/12/22 08:59:54;;;;;;;;;31.67;31.33;11.00;99.90;;;;;;5043599;28;8882;-53
2021/12/22 09:02:24;;;;;;;;;25.67;24.33;11.00;99.90;;;;;;5051780;28;8946;-51
2021/12/22 09:04:57;;;;;;;;;24.00;24.00;11.00;99.90;;;;;;5034334;28;8830;-54
2021/12/22 09:07:28;;;;;;;;;25.33;25.33;11.00;99.90;;;;;;5047509;28;9553;-52
2021/12/22 09:09:59;;;;;;;;;24.25;24.25;11.00;99.90;;;;;;5048653;28;8856;-53
2021/12/22 09:12:31;;;;;;;;;19.25;18.25;11.00;99.90;;;;;;5049343;28;11655;-52
2021/12/22 09:15:01;;;;;;;;;26.50;25.00;11.00;99.90;;;;;;5047123;28;11693;-51
2021/12/22 09:17:33;;;;;;;;;23.25;23.25;11.00;99.90;;;;;;5035479;28;11530;-51
2021/12/22 09:20:04;;;;;;;;;23.00;23.00;11.00;99.90;;;;;;4895636;28;3844430;-51
2021/12/22 09:22:34;;;;;;;;;22.75;22.75;10.90;99.90;;;;;;5050491;28;9027;-53
2021/12/22 09:25:05;;;;;;;;;23.25;23.25;11.00;99.90;;;;;;5039470;28;11467;-51
2021/12/22 09:27:40;;;;;;;;;20.25;20.25;11.00;99.90;;;;;;5037675;28;11490;-53
2021/12/22 09:30:10;;;;;;;;;23.25;22.00;10.90;99.90;;;;;;5050531;28;11476;-54
2021/12/22 09:32:44;;;;;;;;;23.25;21.50;11.00;99.90;;;;;;5048573;28;11498;-49
2021/12/22 09:35:14;;;;;;;;;25.50;24.25;11.00;99.90;;;;;;5050474;28;11468;-52
2021/12/22 09:37:44;;;;;;;;;22.50;22.50;11.00;99.90;;;;;;5032951;28;11510;-53
2021/12/22 09:40:15;;;;;;;;;19.75;19.75;11.00;99.90;;;;;;5034215;28;11624;-51
2021/12/22 09:42:46;;;;;;;;;25.00;25.00;10.90;99.90;;;;;;5049734;28;11517;-52
2021/12/22 09:45:19;;;;;;;;;21.00;21.00;10.90;99.90;;;;;;5050404;28;12203;-51
2021/12/22 09:53:30;;;;;;;;;24.00;23.50;10.90;99.90;;;;;;5050461;28;11491;-53
2021/12/22 09:56:00;;;;;;;;;22.00;22.00;10.90;99.90;;;;;;5045777;28;11498;-50
2021/12/22 09:58:32;;;;;;;;;21.00;21.00;10.90;99.90;;;;;;5051692;28;11462;-49
2021/12/22 10:01:03;;;;;;;;;23.25;22.50;10.90;99.90;;;;;;5051594;28;11573;-52
2021/12/22 10:03:34;;;;;;;;;26.00;26.00;10.90;99.90;;;;;;5053609;28;11507;-49
2021/12/22 10:06:07;;;;;;;;;22.50;22.00;11.00;99.90;;;;;;5031392;28;12352;-51
2021/12/22 10:08:57;;;;;;;;;24.75;24.75;11.00;99.90;;;;;;5053854;28;11462;-52
2021/12/22 10:11:31;;;;;;;;;23.00;22.00;11.00;99.90;;;;;;5045412;28;11491;-52
2021/12/22 10:14:16;;;;;;;;;21.50;20.50;11.00;99.90;;;;;;5053921;28;11736;-52
2021/12/22 10:16:49;;;;;;;;;23.75;23.75;10.90;99.90;;;;;;5037042;28;11576;-53
2021/12/22 10:19:21;;;;;;;;;23.00;23.00;10.90;99.90;;;;;;5051718;28;11485;-52
2021/12/22 10:22:02;;;;;;;;;25.00;23.75;10.90;99.90;;;;;;5042367;28;11709;-51
2021/12/22 10:24:46;;;;;;;;;20.00;20.00;10.90;99.90;;;;;;5048587;28;11539;-51
2021/12/22 10:27:22;;;;;;;;;17.25;17.25;10.90;99.90;;;;;;5029866;28;11543;-53
2021/12/22 10:29:51;;;;;;;;;22.75;21.25;10.90;99.90;;;;;;5054389;28;11451;-51
2021/12/22 10:32:23;;;;;;;;;21.00;21.00;10.90;99.90;;;;;;5031942;28;11664;-47
2021/12/22 10:34:57;;;;;;;;;17.50;16.00;10.90;99.90;;;;;;5045080;28;11583;-60
2021/12/22 10:37:44;;;;;;;;;20.25;20.25;10.90;99.90;;;;;;5040701;28;11471;-54
2021/12/22 10:40:26;;;;;;;;;20.00;20.00;10.90;99.90;;;;;;5034244;28;11493;-52
2021/12/22 10:42:58;;;;;;;;;19.25;19.25;10.90;99.90;;;;;;5047421;28;11512;-53
2021/12/22 10:45:31;;;;;;;;;12.75;12.75;11.00;99.90;;;;;;5034937;28;11631;-51
2021/12/22 10:50:59;;;;;;;;;19.25;19.25;11.00;99.90;;;;;;5047091;28;11646;-51
2021/12/22 10:53:29;;;;;;;;;21.75;21.00;10.90;99.90;;;;;;5031465;28;11525;-55
2021/12/22 10:56:02;;;;;;;;;19.25;19.25;10.90;99.90;;;;;;5035208;28;11545;-51
2021/12/22 10:58:34;;;;;;;;;20.00;20.00;10.90;99.90;;;;;;5050270;28;11518;-54
2021/12/22 11:01:17;;;;;;;;;21.50;21.50;10.90;99.90;;;;;;5029752;28;11507;-53
2021/12/22 11:03:54;;;;;;;;;22.75;22.75;10.90;99.90;;;;;;5036657;28;11523;-52
2021/12/22 11:06:29;;;;;;;;;18.25;18.25;10.90;99.90;;;;;;5028274;28;11658;-52
2021/12/22 11:09:04;;;;;;;;;24.25;22.75;10.90;99.90;;;;;;5043919;28;11475;-53
2021/12/22 11:11:39;;;;;;;;;20.00;20.00;10.90;99.90;;;;;;5028908;28;11516;-51
2021/12/22 11:14:16;;;;;;;;;23.00;21.25;10.90;99.90;;;;;;5043016;28;11541;-55
2021/12/22 11:17:12;;;;;;;;;20.25;20.25;10.90;99.90;;;;;;5047600;28;11449;-53
2021/12/22 11:20:06;;;;;;;;;17.50;17.50;10.90;99.90;;;;;;5049005;28;11592;-53
2021/12/22 11:23:00;;;;;;;;;21.00;21.00;10.90;99.90;;;;;;5046892;28;11494;-52
2021/12/22 11:25:31;;;;;;;;;20.50;19.50;10.90;99.90;;;;;;5040383;28;11475;-49
2021/12/22 11:28:03;;;;;;;;;21.00;21.00;10.80;99.90;;;;;;5013682;28;11480;-52
2021/12/22 11:30:35;;;;;;;;;21.00;18.75;10.80;99.90;;;;;;5044479;28;11514;-52
2021/12/22 11:33:06;;;;;;;;;19.75;19.75;10.80;99.90;;;;;;5051740;28;11450;-51
2021/12/22 11:35:40;;;;;;;;;20.00;19.25;10.80;99.90;;;;;;5031658;28;11500;-51
2021/12/22 11:38:12;;;;;;;;;21.25;21.25;10.80;99.90;;;;;;5051241;28;11468;-51
2021/12/22 11:40:53;;;;;;;;;21.00;21.00;10.80;99.90;;;;;;5031451;28;11529;-50
2021/12/22 11:43:27;;;;;;;;;20.50;20.50;10.80;99.90;;;;;;5035517;28;11478;-50
2021/12/22 11:45:59;;;;;;;;;17.50;17.50;10.80;99.90;;;;;;5024795;28;12307;-50
2021/12/22 11:48:30;;;;;;;;;18.50;18.50;10.80;99.90;;;;;;5046937;28;11648;-49
2021/12/22 11:51:02;;;;;;;;;16.00;16.00;10.90;99.90;;;;;;5044091;28;11479;-51
2021/12/22 11:53:53;;;;;;;;;19.50;19.50;10.80;99.90;;;;;;5045981;28;12229;-50
2021/12/22 11:56:39;;;;;;;;;18.25;18.25;10.80;99.90;;;;;;5048888;28;11493;-50
2021/12/22 11:59:29;;;;;;;;;19.50;19.50;10.90;99.90;;;;;;5051048;28;11498;-49
2021/12/22 12:02:25;;;;;;;;;18.75;18.75;10.80;99.90;;;;;;5045134;28;12206;-51
2021/12/22 12:05:16;;;;;;;;;17.00;17.00;10.80;99.90;;;;;;5047921;28;11537;-52
2021/12/22 12:07:55;;;;;;;;;20.00;20.00;10.80;99.90;;;;;;5045987;28;12169;-51
2021/12/22 12:10:41;;;;;;;;;21.75;21.75;10.80;99.90;;;;;;5050600;28;12428;-51
2021/12/22 12:13:35;;;;;;;;;22.50;22.50;10.80;99.90;;;;;;5035471;28;11477;-52
2021/12/22 12:22:34;;;;;;;;;18.50;16.75;10.90;99.90;;;;;;5051073;28;11525;-51
2021/12/22 12:25:13;;;;;;;;;22.25;22.25;10.80;99.90;;;;;;5033825;28;11637;-51
2021/12/22 12:27:55;;;;;;;;;20.00;20.00;10.90;99.90;;;;;;5049509;28;11485;-50
2021/12/22 12:30:49;;;;;;;;;18.50;16.50;10.90;99.90;;;;;;5044599;28;13334;-48
2021/12/22 12:33:31;;;;;;;;;20.75;20.75;10.80;99.90;;;;;;5054253;28;11489;-48
2021/12/22 12:36:06;;;;;;;;;19.00;19.00;10.80;99.90;;;;;;5035753;28;11488;-52
2021/12/22 12:38:52;;;;;;;;;16.00;16.00;10.80;99.90;;;;;;5048365;28;11532;-48
2021/12/22 12:41:29;;;;;;;;;19.75;19.25;10.80;99.90;;;;;;5046691;28;11524;-48
2021/12/22 12:44:12;;;;;;;;;18.50;18.50;10.80;99.90;;;;;;5054345;28;11462;-49
2021/12/22 12:46:47;;;;;;;;;20.50;20.00;10.80;99.90;;;;;;5048866;28;11493;-52
2021/12/22 12:49:22;;;;;;;;;19.50;19.50;10.80;99.90;;;;;;5042381;28;11467;-52
2021/12/22 12:51:52;;;;;;;;;17.75;17.75;10.80;99.90;;;;;;5052130;28;11466;-47
2021/12/22 12:54:24;;;;;;;;;16.75;16.75;10.80;99.90;;;;;;5035551;28;11500;-50
2021/12/22 12:57:20;;;;;;;;;19.75;19.75;10.80;99.90;;;;;;5054194;28;11500;-53
2021/12/22 12:59:54;;;;;;;;;20.50;20.50;10.80;99.90;;;;;;5036893;28;11509;-50
2021/12/22 13:02:31;;;;;;;;;14.50;14.50;10.80;99.90;;;;;;5052048;28;11681;-51
2021/12/22 13:05:13;;;;;;;;;17.75;16.00;10.80;99.90;;;;;;5051653;28;11488;-48
2021/12/22 13:07:45;;;;;;;;;19.00;19.00;10.90;99.90;;;;;;5051220;28;11473;-50
2021/12/22 13:10:24;;;;;;;;;14.25;14.25;10.90;99.90;;;;;;5052842;28;11638;-52
2021/12/22 13:13:14;;;;;;;;;13.75;13.75;10.90;99.90;;;;;;5051582;28;11425;-51
2021/12/22 13:15:49;;;;;;;;;13.00;13.00;10.90;99.90;;;;;;5052525;28;11482;-48
2021/12/22 13:18:26;;;;;;;;;15.25;15.25;10.90;99.90;;;;;;5040463;28;12087;-50
2021/12/22 13:21:06;;;;;;;;;18.50;18.50;10.90;99.90;;;;;;5013825;28;11563;-50
2021/12/22 13:23:37;;;;;;;;;16.25;16.25;10.90;99.90;;;;;;5023661;28;11560;-49
2021/12/22 13:26:08;;;;;;;;;18.00;15.00;10.90;99.90;;;;;;5033667;28;11572;-52
2021/12/22 13:28:47;;;;;;;;;14.25;14.25;10.90;99.90;;;;;;5031610;28;11531;-51
2021/12/22 13:31:21;;;;;;;;;11.50;11.50;10.90;99.90;;;;;;5012977;28;11538;-52